Time;durP1;ratioP1;P1;durP2;ratioP2;P2;SDS_P1;SDS_P2;PMS_P1;PMS_P2;Temp;Humidity;BMP_temperature;BMP_pressure;BME280_temperature;BME280_humidity;BME280_pressure;Samples;Min_cycle;Max_cycle;Signal;HPM_P1;HPM_P2
2022/05/30 00:00:17;;;;;;;6.83;6.17;;;;;;;24.51;50.59;93856.88;5082524;28;20412;-72
2022/05/30 00:02:43;;;;;;;8.23;6.17;;;;;;;24.83;49.98;93855.91;5083993;28;20411;-72
2022/05/30 00:05:10;;;;;;;7.10;6.43;;;;;;;25.17;49.14;93856.47;5088625;28;20436;-72
2022/05/30 00:07:36;;;;;;;8.70;6.17;;;;;;;24.89;49.39;93861.94;5081980;28;20170;-72
2022/05/30 00:10:02;;;;;;;8.53;6.80;;;;;;;24.24;51.02;93865.75;5082775;28;20446;-72
2022/05/30 00:12:28;;;;;;;7.03;5.73;;;;;;;23.85;51.53;93867.88;5082299;28;20460;-72
2022/05/30 00:14:53;;;;;;;6.97;5.60;;;;;;;24.33;50.73;93869.31;5084628;28;20443;-72
2022/05/30 00:17:19;;;;;;;5.73;5.23;;;;;;;23.02;53.23;93873.00;5082983;28;20174;-71
2022/05/30 00:19:44;;;;;;;5.83;5.23;;;;;;;23.47;52.71;93867.22;5097249;28;20597;-72
2022/05/30 00:22:13;;;;;;;6.57;5.90;;;;;;;23.07;53.66;93872.97;5082805;28;20256;-72
2022/05/30 00:24:38;;;;;;;5.50;5.00;;;;;;;23.49;52.59;93876.50;5073134;28;20595;-72
2022/05/30 00:27:04;;;;;;;6.70;5.93;;;;;;;23.25;52.79;93865.19;5078134;28;20515;-72
2022/05/30 00:29:29;;;;;;;6.53;5.93;;;;;;;23.56;51.99;93866.25;5089750;28;20211;-72
2022/05/30 00:31:55;;;;;;;6.30;5.80;;;;;;;23.85;51.44;93859.84;5081371;28;20214;-72
2022/05/30 00:34:20;;;;;;;6.43;5.70;;;;;;;24.07;51.53;93864.47;5080784;28;20519;-72
2022/05/30 00:36:46;;;;;;;8.50;6.13;;;;;;;23.92;51.44;93859.44;5081255;28;20601;-72
2022/05/30 00:39:11;;;;;;;9.83;6.30;;;;;;;23.85;51.37;93867.88;5083538;28;20192;-72
2022/05/30 00:41:37;;;;;;;6.53;5.93;;;;;;;23.94;50.91;93865.28;5084603;28;20200;-72
2022/05/30 00:44:03;;;;;;;9.27;6.20;;;;;;;24.02;51.08;93863.78;5083179;28;20644;-72
2022/05/30 00:46:28;;;;;;;9.03;7.20;;;;;;;23.62;50.67;93871.47;5082182;28;20652;-73
2022/05/30 00:48:58;;;;;;;8.53;7.73;;;;;;;23.62;50.89;93868.81;5084801;28;20794;-73
2022/05/30 00:51:29;;;;;;;9.47;8.23;;;;;;;22.98;52.41;93877.34;5083207;28;20185;-72
2022/05/30 00:53:56;;;;;;;12.20;8.73;;;;;;;23.30;51.46;93870.44;5079670;28;20434;-72
2022/05/30 00:56:31;;;;;;;11.53;9.00;;;;;;;23.43;51.64;93871.53;5082507;28;20451;-72
2022/05/30 00:58:58;;;;;;;9.80;8.03;;;;;;;23.97;50.08;93873.50;5081790;28;20430;-72
2022/05/30 01:01:23;;;;;;;11.10;9.10;;;;;;;23.43;51.75;93876.88;5083439;28;20459;-72
2022/05/30 01:06:41;;;;;;;10.63;8.47;;;;;;;23.24;51.70;93874.28;5080862;28;20199;-72
2022/05/30 01:09:12;;;;;;;10.93;8.10;;;;;;;23.13;51.53;93869.13;5083129;28;20439;-72
2022/05/30 01:12:01;;;;;;;11.47;8.60;;;;;;;23.12;51.53;93872.06;5080800;28;20547;-72
2022/05/30 01:14:31;;;;;;;11.13;8.67;;;;;;;22.41;53.25;93864.03;5083943;28;21015;-72
2022/05/30 01:16:59;;;;;;;9.90;8.67;;;;;;;22.50;53.39;93867.63;5083201;28;20400;-72
2022/05/30 01:19:36;;;;;;;13.00;9.43;;;;;;;22.57;53.09;93862.72;5084391;28;20472;-72
2022/05/30 01:22:18;;;;;;;12.70;8.70;;;;;;;22.76;52.73;93868.03;5096705;28;20403;-72
2022/05/30 01:25:10;;;;;;;10.77;9.00;;;;;;;23.13;51.98;93871.78;5098733;28;20442;-72
2022/05/30 01:27:47;;;;;;;8.43;7.63;;;;;;;23.25;52.03;93878.53;5082892;28;20420;-72
2022/05/30 01:30:15;;;;;;;11.80;9.13;;;;;;;22.15;53.68;93876.88;5083274;28;20443;-72
2022/05/30 01:32:41;;;;;;;12.93;8.53;;;;;;;22.80;52.40;93877.06;5095348;28;20471;-72
2022/05/30 01:35:07;;;;;;;9.80;8.17;;;;;;;23.03;51.33;93879.97;5081910;28;20478;-72
2022/05/30 01:37:33;;;;;;;11.60;7.77;;;;;;;23.13;51.18;93879.00;5079031;28;20174;-73
2022/05/30 01:39:58;;;;;;;10.43;7.00;;;;;;;23.05;51.23;93883.13;5085422;28;20499;-73
2022/05/30 01:42:23;;;;;;;11.80;7.23;;;;;;;22.97;51.16;93878.41;5086299;28;20180;-72
2022/05/30 01:44:49;;;;;;;10.67;9.70;;;;;;;23.05;51.46;93877.78;5089738;28;20181;-72
2022/05/30 01:47:14;;;;;;;8.40;6.33;;;;;;;22.75;51.67;93873.69;5085869;28;20177;-72
2022/05/30 01:49:40;;;;;;;9.00;6.93;;;;;;;22.68;52.00;93889.25;5087160;28;20202;-72
2022/05/30 01:52:06;;;;;;;8.57;7.10;;;;;;;22.54;52.44;93878.53;5081271;28;20186;-73
2022/05/30 01:54:32;;;;;;;9.23;6.37;;;;;;;22.78;51.54;93886.44;5086661;28;20174;-73
2022/05/30 01:56:57;;;;;;;5.93;5.33;;;;;;;23.10;51.10;93880.38;5089299;28;20414;-72
2022/05/30 01:59:22;;;;;;;7.20;5.67;;;;;;;23.05;51.07;93879.66;5091951;28;20174;-72
2022/05/30 02:01:48;;;;;;;7.27;6.37;;;;;;;22.47;52.31;93878.09;5088191;28;20275;-72
2022/05/30 02:04:15;;;;;;;6.60;6.00;;;;;;;22.86;51.32;93875.13;5084589;28;20190;-72
2022/05/30 02:06:41;;;;;;;7.70;5.40;;;;;;;22.66;51.57;93881.53;5085980;28;20174;-72
2022/05/30 02:09:06;;;;;;;6.40;5.90;;;;;;;21.67;53.95;93882.22;5088838;28;20431;-72
2022/05/30 02:11:33;;;;;;;5.80;5.23;;;;;;;21.22;55.74;93888.44;5086908;28;20838;-72
2022/05/30 02:13:58;;;;;;;7.17;6.00;;;;;;;21.30;55.57;93894.25;5091632;28;20208;-72
2022/05/30 02:19:09;;;;;;;7.57;5.67;;;;;;;21.79;53.75;93902.03;5080743;28;20308;-73
2022/05/30 02:21:35;;;;;;;11.97;6.20;;;;;;;21.86;53.80;93904.38;5088037;28;20499;-73
2022/05/30 02:24:06;;;;;;;6.03;5.57;;;;;;;22.30;53.26;93905.22;5094311;28;20479;-72
2022/05/30 02:26:34;;;;;;;7.13;5.30;;;;;;;22.59;52.45;93907.78;5088237;28;20435;-72
2022/05/30 02:28:59;;;;;;;8.03;5.37;;;;;;;22.54;52.23;93905.19;5072172;28;20440;-72
2022/05/30 02:31:25;;;;;;;7.57;5.57;;;;;;;22.67;52.48;93909.81;5084872;28;20471;-72
2022/05/30 02:36:41;;;;;;;7.90;6.30;;;;;;;22.73;51.12;93907.88;5088957;28;20184;-72
2022/05/30 02:39:08;;;;;;;7.87;6.47;;;;;;;23.15;50.59;93911.53;5093945;28;20514;-72
2022/05/30 02:41:34;;;;;;;9.20;8.23;;;;;;;21.19;55.58;93915.63;5091809;28;20421;-72
2022/05/30 02:43:59;;;;;;;8.60;7.57;;;;;;;22.57;52.42;93913.38;5081887;28;20462;-72
2022/05/30 02:46:25;;;;;;;12.53;8.30;;;;;;;22.63;52.07;93908.78;5086482;28;20574;-73
2022/05/30 02:48:50;;;;;;;9.97;8.30;;;;;;;22.53;52.25;93924.94;5078037;28;20189;-72
2022/05/30 02:51:16;;;;;;;11.23;8.27;;;;;;;22.86;52.32;93925.81;5083992;28;20189;-72
2022/05/30 02:53:41;;;;;;;11.80;8.50;;;;;;;22.92;51.90;93921.19;5084357;28;20285;-72
2022/05/30 02:56:08;;;;;;;8.07;6.53;;;;;;;23.03;52.04;93936.00;5087178;28;20178;-72
2022/05/30 02:58:33;;;;;;;11.43;8.50;;;;;;;23.35;51.26;93935.25;5096173;28;20234;-72
2022/05/30 03:00:59;;;;;;;14.40;7.93;;;;;;;23.53;50.94;93941.63;5084008;28;20495;-72
2022/05/30 03:03:24;;;;;;;8.73;7.70;;;;;;;23.58;50.83;93943.41;5085883;28;20192;-72
2022/05/30 03:05:50;;;;;;;7.80;6.73;;;;;;;23.66;50.81;93948.09;5087504;28;20181;-72
2022/05/30 03:08:15;;;;;;;8.27;7.47;;;;;;;23.82;50.23;93950.50;5085263;28;20536;-72
2022/05/30 03:10:40;;;;;;;10.53;7.30;;;;;;;23.87;50.08;93951.22;5081843;28;20181;-72
2022/05/30 03:13:06;;;;;;;8.20;7.30;;;;;;;23.76;50.28;93973.81;5089288;28;20233;-72
2022/05/30 03:15:32;;;;;;;10.47;7.57;;;;;;;23.77;50.13;93973.53;5080634;28;20194;-72
2022/05/30 03:17:58;;;;;;;9.07;6.67;;;;;;;22.74;51.20;93970.78;5088891;28;20852;-72
2022/05/30 03:20:24;;;;;;;8.80;6.17;;;;;;;22.97;50.03;93974.47;5088631;28;20427;-72
2022/05/30 03:22:49;;;;;;;7.47;6.50;;;;;;;23.09;49.90;93985.56;5085641;28;20177;-73
2022/05/30 03:25:16;;;;;;;11.10;6.73;;;;;;;22.96;50.11;93980.91;5084742;28;20793;-72
2022/05/30 03:27:42;;;;;;;10.73;7.53;;;;;;;22.48;51.13;93997.00;5082282;28;20190;-72
2022/05/30 03:30:09;;;;;;;7.37;6.30;;;;;;;22.00;52.78;93998.53;5086050;28;20452;-72
2022/05/30 03:32:35;;;;;;;7.20;6.00;;;;;;;22.46;51.09;93999.16;5087926;28;20251;-72
2022/05/30 03:35:00;;;;;;;8.00;5.90;;;;;;;22.67;51.06;94000.50;5097823;28;20431;-72
2022/05/30 03:37:27;;;;;;;9.80;6.60;;;;;;;23.07;50.38;94006.41;5083587;28;20177;-72
2022/05/30 03:39:52;;;;;;;7.07;6.47;;;;;;;22.81;49.98;94006.72;5096906;28;20587;-72
2022/05/30 03:42:18;;;;;;;6.50;5.77;;;;;;;21.65;52.15;94013.00;5084977;28;20419;-72
2022/05/30 03:44:44;;;;;;;5.80;4.90;;;;;;;21.19;53.53;94023.91;5088364;28;20245;-72
2022/05/30 03:47:10;;;;;;;5.20;4.80;;;;;;;20.57;55.71;94028.75;5090450;28;20177;-71
2022/05/30 03:49:36;;;;;;;9.33;5.17;;;;;;;21.66;52.74;94025.22;5089210;28;20862;-72
2022/05/30 03:52:02;;;;;;;6.97;6.37;;;;;;;21.09;53.02;94031.97;5093485;28;21054;-71
2022/05/30 03:54:27;;;;;;;7.00;5.47;;;;;;;20.74;54.54;94031.09;5091134;28;20432;-72
2022/05/30 03:56:53;;;;;;;9.63;5.47;;;;;;;21.71;52.31;94037.72;5087291;28;20267;-72
2022/05/30 03:59:18;;;;;;;9.70;4.90;;;;;;;21.12;52.75;94042.88;5082552;28;20173;-72
2022/05/30 04:01:44;;;;;;;4.77;4.37;;;;;;;20.54;54.75;94045.22;5089863;28;20633;-71
2022/05/30 04:04:12;;;;;;;10.87;6.17;;;;;;;21.68;52.87;94044.38;5096509;28;20257;-72
2022/05/30 04:06:38;;;;;;;7.90;5.80;;;;;;;22.51;50.81;94047.88;5078672;28;20188;-72
2022/05/30 04:09:04;;;;;;;6.87;5.97;;;;;;;22.63;49.92;94050.16;5079367;28;20443;-72
2022/05/30 04:11:30;;;;;;;6.30;5.33;;;;;;;22.95;49.31;94054.03;5100040;28;20466;-72
2022/05/30 04:13:56;;;;;;;6.10;5.60;;;;;;;22.59;49.46;94052.63;5089233;28;20450;-72
2022/05/30 04:16:22;;;;;;;5.83;5.33;;;;;;;23.14;49.24;94062.09;5088143;28;20424;-72
2022/05/30 04:18:47;;;;;;;6.93;6.23;;;;;;;23.19;49.08;94065.50;5108776;28;20174;-72
2022/05/30 04:21:13;;;;;;;7.87;5.93;;;;;;;23.32;49.29;94063.19;5085762;28;20233;-72
2022/05/30 04:23:41;;;;;;;6.03;5.33;;;;;;;22.81;49.68;94067.28;5087435;28;20200;-72
2022/05/30 04:26:08;;;;;;;5.80;5.27;;;;;;;22.94;49.47;94063.13;5084275;28;20182;-72
2022/05/30 04:28:33;;;;;;;7.00;6.33;;;;;;;22.89;49.79;94063.97;5079569;28;20440;-72
2022/05/30 04:30:59;;;;;;;10.60;6.70;;;;;;;22.76;50.58;94072.69;5085581;28;20980;-72
2022/05/30 04:33:25;;;;;;;10.80;6.63;;;;;;;23.54;49.30;94063.41;5074662;28;20252;-72
2022/05/30 04:35:51;;;;;;;11.50;6.83;;;;;;;23.81;48.41;94059.28;5087069;28;20621;-72
2022/05/30 04:38:16;;;;;;;7.33;6.63;;;;;;;24.26;48.08;94058.78;5084741;28;20435;-72
2022/05/30 04:40:42;;;;;;;8.53;6.30;;;;;;;24.29;47.31;94056.31;5085671;28;20181;-72
2022/05/30 04:43:07;;;;;;;8.87;7.97;;;;;;;23.38;48.20;94056.69;5090233;28;20213;-72
2022/05/30 04:45:32;;;;;;;9.23;8.07;;;;;;;24.30;47.52;94059.78;5083333;28;20177;-72
2022/05/30 04:47:58;;;;;;;7.80;7.00;;;;;;;24.57;45.90;94064.41;5083046;28;21019;-72
2022/05/30 04:50:24;;;;;;;9.43;7.93;;;;;;;24.35;46.70;94063.16;5079652;28;20307;-72
2022/05/30 04:52:50;;;;;;;10.47;7.20;;;;;;;24.74;46.82;94069.97;5084587;28;20193;-73
2022/05/30 04:55:18;;;;;;;10.50;8.00;;;;;;;24.27;47.11;94068.41;5084470;28;20435;-72
2022/05/30 04:57:48;;;;;;;8.43;7.23;;;;;;;24.61;47.32;94073.44;5084391;28;20427;-73
2022/05/30 05:00:17;;;;;;;8.63;7.30;;;;;;;25.25;46.16;94073.53;5086790;28;20432;-72
2022/05/30 05:02:42;;;;;;;11.63;7.97;;;;;;;25.50;44.85;94085.56;5085565;28;20412;-72
2022/05/30 05:05:09;;;;;;;10.57;8.70;;;;;;;25.62;44.01;94086.91;5087562;28;20625;-72
2022/05/30 05:08:13;;;;;;;8.27;7.57;;;;;;;25.32;45.99;94083.81;5082726;28;20189;-73
2022/05/30 05:10:57;;;;;;;11.37;8.00;;;;;;;24.47;46.78;94085.97;5078918;28;20580;-73
2022/05/30 05:13:22;;;;;;;8.50;7.43;;;;;;;24.26;47.88;94085.53;5082649;28;20546;-73
2022/05/30 05:15:47;;;;;;;8.23;7.43;;;;;;;24.42;46.99;94084.19;5088027;28;20432;-72
2022/05/30 05:18:13;;;;;;;8.17;7.37;;;;;;;24.88;46.19;94099.41;5088995;28;20533;-73
2022/05/30 05:20:42;;;;;;;10.10;8.87;;;;;;;24.75;46.07;94100.19;5093511;28;20197;-72
2022/05/30 05:23:08;;;;;;;12.40;9.40;;;;;;;25.52;44.49;94093.31;5086368;28;20451;-73
2022/05/30 05:25:37;;;;;;;11.27;10.17;;;;;;;25.65;44.31;94097.84;5093477;28;20431;-73
2022/05/30 05:28:04;;;;;;;14.43;11.27;;;;;;;25.76;43.93;94098.38;5088492;28;20190;-72
2022/05/30 05:30:29;;;;;;;13.40;10.30;;;;;;;25.84;44.17;94103.03;5088213;28;20443;-73
2022/05/30 05:32:54;;;;;;;11.40;10.20;;;;;;;26.47;43.13;94095.09;5086238;28;20486;-72
2022/05/30 05:35:20;;;;;;;14.57;11.20;;;;;;;26.94;42.05;94098.16;5086282;28;20567;-72
2022/05/30 05:37:45;;;;;;;14.63;10.40;;;;;;;26.91;42.35;94101.47;5088023;28;20177;-73
2022/05/30 05:40:11;;;;;;;13.20;11.70;;;;;;;27.04;42.05;94107.81;5092413;28;20211;-73
2022/05/30 05:42:36;;;;;;;10.20;9.27;;;;;;;27.42;41.46;94108.09;5092281;28;20261;-73
2022/05/30 05:45:03;;;;;;;16.20;11.33;;;;;;;27.08;41.00;94101.50;5085809;28;20668;-73
2022/05/30 05:47:28;;;;;;;13.90;12.43;;;;;;;26.71;41.72;94104.69;5087785;28;20178;-72
2022/05/30 05:49:54;;;;;;;14.17;11.00;;;;;;;26.91;41.77;94109.50;5085948;28;20448;-73
2022/05/30 05:52:20;;;;;;;13.43;12.20;;;;;;;25.52;44.22;94104.81;5087545;28;20195;-73
2022/05/30 05:54:46;;;;;;;14.63;11.90;;;;;;;26.28;43.41;94114.88;5084259;28;20473;-73
2022/05/30 05:57:11;;;;;;;17.20;13.90;;;;;;;27.01;41.18;94108.44;5092761;28;20173;-73
2022/05/30 05:59:37;;;;;;;14.93;13.40;;;;;;;26.22;41.95;94105.38;5097524;28;20609;-73
2022/05/30 06:02:07;;;;;;;12.10;10.90;;;;;;;26.03;43.52;94118.97;5085493;28;20173;-73
2022/05/30 06:04:32;;;;;;;12.03;10.70;;;;;;;25.92;43.16;94116.84;5096256;28;20185;-72
2022/05/30 06:07:01;;;;;;;10.50;9.37;;;;;;;25.96;43.26;94113.22;5087880;28;20433;-72
2022/05/30 06:09:27;;;;;;;14.33;10.23;;;;;;;24.84;45.41;94108.34;5085940;28;20181;-72
2022/05/30 06:11:53;;;;;;;11.37;10.23;;;;;;;25.90;43.43;94120.56;5082152;28;20473;-73
2022/05/30 06:14:19;;;;;;;12.60;11.30;;;;;;;26.21;42.72;94119.88;5088334;28;20196;-73
2022/05/30 06:16:45;;;;;;;13.57;11.70;;;;;;;25.69;44.66;94114.09;5083610;28;20427;-73
2022/05/30 06:19:11;;;;;;;13.50;12.10;;;;;;;25.96;44.25;94128.53;5085210;28;20446;-72
2022/05/30 06:21:38;;;;;;;12.43;11.17;;;;;;;24.30;47.54;94130.13;5083904;28;20428;-72
2022/05/30 06:24:05;;;;;;;12.07;10.97;;;;;;;24.50;47.52;94130.88;5083933;28;20181;-72
2022/05/30 06:26:30;;;;;;;13.30;12.07;;;;;;;24.30;48.20;94140.84;5073171;28;20419;-73
2022/05/30 06:28:56;;;;;;;15.90;12.50;;;;;;;24.84;47.33;94140.47;5085471;28;20424;-73
2022/05/30 06:31:24;;;;;;;13.00;11.77;;;;;;;25.47;45.89;94139.75;5085082;28;20569;-72
2022/05/30 06:33:50;;;;;;;13.60;12.20;;;;;;;25.40;45.56;94144.75;5084436;28;20248;-73
2022/05/30 06:36:18;;;;;;;13.70;12.30;;;;;;;25.55;45.47;94148.19;5088226;28;20408;-72
2022/05/30 06:38:43;;;;;;;16.63;12.27;;;;;;;25.40;46.28;94144.75;5082035;28;20173;-73
2022/05/30 06:41:13;;;;;;;13.00;11.77;;;;;;;25.94;44.83;94150.28;5083520;28;20451;-73
2022/05/30 06:43:39;;;;;;;12.80;11.60;;;;;;;25.03;46.90;94141.16;5098402;28;20251;-73
2022/05/30 06:46:05;;;;;;;14.77;11.60;;;;;;;25.13;47.14;94154.34;5083909;28;20476;-72
2022/05/30 06:48:31;;;;;;;14.60;12.47;;;;;;;25.32;46.48;94150.78;5081464;28;20189;-72
2022/05/30 06:50:57;;;;;;;12.67;11.37;;;;;;;25.62;45.86;94156.59;5084106;28;20181;-73
2022/05/30 06:53:22;;;;;;;14.97;10.27;;;;;;;26.20;43.93;94152.34;5084775;28;20507;-73
2022/05/30 06:55:50;;;;;;;12.93;11.17;;;;;;;25.88;45.24;94149.59;5084936;28;20184;-74
2022/05/30 06:58:19;;;;;;;12.57;11.37;;;;;;;24.32;49.14;94157.38;5080990;28;20280;-73
2022/05/30 07:00:46;;;;;;;14.13;11.23;;;;;;;25.17;47.23;94159.09;5082267;28;20412;-73
2022/05/30 07:03:13;;;;;;;12.57;11.37;;;;;;;25.98;45.60;94161.19;5089591;28;20450;-73
2022/05/30 07:05:44;;;;;;;13.77;11.50;;;;;;;26.20;44.33;94157.72;5084090;28;20432;-73
2022/05/30 07:08:10;;;;;;;13.23;11.67;;;;;;;26.55;43.31;94166.00;5086277;28;20454;-73
2022/05/30 07:10:37;;;;;;;14.13;12.47;;;;;;;26.35;44.65;94170.78;5085264;28;20425;-73
2022/05/30 07:13:04;;;;;;;13.43;11.97;;;;;;;25.95;45.77;94159.13;5083504;28;20456;-73
2022/05/30 07:15:31;;;;;;;14.03;12.53;;;;;;;26.35;45.21;94167.28;5080895;28;20440;-72
2022/05/30 07:17:57;;;;;;;13.50;12.03;;;;;;;27.08;43.15;94163.28;5085745;28;20431;-73
2022/05/30 07:20:22;;;;;;;13.20;11.83;;;;;;;27.95;41.95;94161.97;5087787;28;20467;-73
2022/05/30 07:22:48;;;;;;;13.80;12.03;;;;;;;28.70;40.44;94159.81;5084119;28;20253;-73
2022/05/30 07:25:14;;;;;;;14.13;12.73;;;;;;;27.57;42.44;94157.94;5085596;28;20216;-73
2022/05/30 07:27:39;;;;;;;13.67;11.30;;;;;;;28.38;40.20;94158.44;5081937;28;20185;-73
2022/05/30 07:30:06;;;;;;;12.20;10.50;;;;;;;27.18;42.57;94161.44;5080522;28;20649;-73
2022/05/30 07:32:33;;;;;;;13.67;12.27;;;;;;;27.49;42.24;94156.03;5086422;28;20243;-73
2022/05/30 07:34:59;;;;;;;12.77;11.47;;;;;;;27.65;42.03;94153.66;5083886;28;20449;-73
2022/05/30 07:37:25;;;;;;;15.90;12.60;;;;;;;26.95;43.90;94163.41;5089455;28;20428;-73
2022/05/30 07:39:50;;;;;;;16.83;12.30;;;;;;;27.72;42.52;94167.44;5100880;28;20502;-72
2022/05/30 07:42:15;;;;;;;13.47;11.70;;;;;;;28.27;40.89;94159.88;5088967;28;20181;-73
2022/05/30 07:44:41;;;;;;;14.00;11.13;;;;;;;28.97;39.59;94165.94;5089107;28;20178;-73
2022/05/30 07:47:07;;;;;;;16.60;13.33;;;;;;;28.16;41.54;94157.50;5076383;28;20189;-73
2022/05/30 07:49:33;;;;;;;12.60;11.50;;;;;;;28.62;40.71;94158.75;5083913;28;20272;-72
2022/05/30 07:51:58;;;;;;;18.57;12.67;;;;;;;29.07;38.97;94156.72;5082838;28;20464;-73
2022/05/30 07:54:24;;;;;;;16.17;13.03;;;;;;;29.08;39.74;94152.88;5080496;28;20197;-73
2022/05/30 07:56:49;;;;;;;10.83;9.70;;;;;;;27.46;42.49;94157.44;5082431;28;20175;-73
2022/05/30 07:59:15;;;;;;;11.57;10.00;;;;;;;27.33;41.96;94165.63;5085595;28;20185;-72
2022/05/30 08:01:41;;;;;;;11.23;10.33;;;;;;;27.31;42.28;94157.09;5084146;28;20714;-73
2022/05/30 08:04:12;;;;;;;15.17;11.17;;;;;;;28.64;40.04;94163.03;5091232;28;20245;-73
2022/05/30 08:06:38;;;;;;;13.90;11.97;;;;;;;27.05;43.21;94168.50;5081713;28;20263;-73
2022/05/30 08:09:04;;;;;;;13.20;11.80;;;;;;;28.79;39.62;94167.91;5090893;28;20455;-73
2022/05/30 08:11:31;;;;;;;13.40;11.40;;;;;;;28.21;40.89;94170.81;5088721;28;20977;-73
2022/05/30 08:13:56;;;;;;;11.00;9.97;;;;;;;27.77;41.53;94166.50;5092296;28;20443;-73
2022/05/30 08:16:25;;;;;;;10.30;9.27;;;;;;;27.47;41.88;94171.69;5084761;28;20430;-73
2022/05/30 08:18:51;;;;;;;11.27;10.17;;;;;;;26.85;42.88;94164.47;5083820;28;20216;-73
2022/05/30 08:21:17;;;;;;;11.73;10.53;;;;;;;27.17;42.70;94165.25;5083536;28;20428;-72
2022/05/30 08:23:43;;;;;;;12.80;10.60;;;;;;;28.93;38.95;94162.28;5080265;28;20189;-72
2022/05/30 08:26:09;;;;;;;10.43;9.13;;;;;;;27.43;41.18;94162.63;5084023;28;20812;-73
2022/05/30 08:28:35;;;;;;;11.60;10.00;;;;;;;28.28;39.90;94169.53;5075456;28;20462;-73
2022/05/30 08:31:01;;;;;;;12.00;10.33;;;;;;;28.06;40.04;94157.03;5078550;28;20424;-73
2022/05/30 08:33:27;;;;;;;12.03;10.53;;;;;;;27.16;42.57;94163.63;5089073;28;20205;-72
2022/05/30 08:36:04;;;;;;;10.80;9.80;;;;;;;29.14;38.21;94168.59;5082504;28;20186;-73
2022/05/30 08:38:33;;;;;;;12.43;10.30;;;;;;;29.44;37.74;94170.50;5087659;28;20440;-73
2022/05/30 08:43:48;;;;;;;11.30;9.53;;;;;;;30.35;35.65;94176.25;5083032;28;20465;-73
2022/05/30 08:46:31;;;;;;;9.27;8.40;;;;;;;29.61;37.10;94170.41;5082479;28;20424;-73
2022/05/30 08:49:13;;;;;;;10.43;9.43;;;;;;;31.05;34.72;94168.25;5095980;28;20432;-73
2022/05/30 08:52:06;;;;;;;9.27;8.47;;;;;;;30.16;35.78;94163.22;5085056;28;20438;-72
2022/05/30 08:55:08;;;;;;;9.13;8.23;;;;;;;30.22;35.26;94163.81;5086297;28;20438;-72
2022/05/30 08:57:33;;;;;;;12.30;8.87;;;;;;;29.06;37.39;94160.50;5084272;28;20488;-72
2022/05/30 09:00:09;;;;;;;9.50;8.10;;;;;;;29.45;37.31;94164.78;5084275;28;20503;-72
2022/05/30 09:02:57;;;;;;;11.23;9.30;;;;;;;29.45;37.21;94169.41;5083236;28;20166;-72
2022/05/30 09:05:28;;;;;;;10.30;8.37;;;;;;;29.76;36.65;94179.88;5085546;28;20511;-72
2022/05/30 09:07:58;;;;;;;11.53;9.63;;;;;;;28.81;37.80;94173.75;5088672;28;20547;-72
2022/05/30 09:10:31;;;;;;;11.53;8.33;;;;;;;28.99;37.68;94172.59;5087545;28;20419;-72
2022/05/30 09:13:06;;;;;;;10.03;9.03;;;;;;;29.09;37.44;94178.75;5086526;28;20477;-72
2022/05/30 09:15:45;;;;;;;9.73;8.20;;;;;;;29.60;36.11;94176.94;5087703;28;20566;-72
2022/05/30 09:18:17;;;;;;;9.07;8.27;;;;;;;29.24;37.67;94178.22;5084927;28;20447;-72
2022/05/30 09:20:43;;;;;;;10.90;9.17;;;;;;;30.10;36.95;94181.53;5086514;28;20454;-72
2022/05/30 09:23:11;;;;;;;8.90;8.10;;;;;;;29.69;36.96;94180.38;5089838;28;20436;-72
2022/05/30 09:26:01;;;;;;;10.57;9.50;;;;;;;30.27;36.37;94187.91;5087932;28;20188;-72
2022/05/30 09:28:33;;;;;;;9.33;8.43;;;;;;;30.67;35.66;94190.91;5082729;28;20432;-73
2022/05/30 09:31:29;;;;;;;10.13;9.07;;;;;;;30.02;36.71;94195.88;5085019;28;20407;-74
2022/05/30 09:33:58;;;;;;;10.97;8.17;;;;;;;30.27;36.16;94187.91;5081445;28;20974;-72
2022/05/30 09:36:27;;;;;;;9.13;7.73;;;;;;;30.14;36.20;94192.44;5085817;28;20447;-73
2022/05/30 09:39:05;;;;;;;10.57;9.50;;;;;;;29.02;38.05;94193.47;5101746;28;20435;-73
2022/05/30 09:41:49;;;;;;;8.50;7.70;;;;;;;29.58;37.55;94184.56;5086038;28;20424;-73
2022/05/30 09:44:17;;;;;;;10.00;9.20;;;;;;;28.82;38.58;94191.50;5086080;28;20435;-72
2022/05/30 09:46:50;;;;;;;9.20;8.40;;;;;;;29.63;37.12;94194.34;5086170;28;20435;-74
2022/05/30 09:49:27;;;;;;;8.67;7.80;;;;;;;31.11;33.96;94185.06;5087983;28;20435;-72
2022/05/30 09:51:55;;;;;;;9.20;8.57;;;;;;;30.80;35.21;94185.53;5090276;28;21179;-73
2022/05/30 09:54:24;;;;;;;9.33;8.53;;;;;;;31.51;33.97;94185.22;5088401;28;20454;-73
2022/05/30 09:56:53;;;;;;;9.27;8.40;;;;;;;31.77;34.08;94183.28;5084540;28;20411;-73
2022/05/30 09:59:25;;;;;;;10.30;8.20;;;;;;;32.42;32.55;94189.47;5085530;28;20443;-73
2022/05/30 10:01:52;;;;;;;9.70;8.80;;;;;;;31.97;33.65;94181.53;5085991;28;20913;-74
2022/05/30 10:04:39;;;;;;;8.87;7.83;;;;;;;30.62;34.94;94185.72;5086040;28;20436;-73
2022/05/30 10:07:15;;;;;;;12.80;7.93;;;;;;;30.27;36.12;94185.22;5084188;28;20478;-72
2022/05/30 10:09:50;;;;;;;11.43;8.33;;;;;;;29.93;36.51;94187.06;5085818;28;20427;-73
2022/05/30 10:12:27;;;;;;;12.90;7.77;;;;;;;31.42;33.86;94183.75;5085146;28;20516;-74
2022/05/30 10:14:52;;;;;;;8.63;7.83;;;;;;;30.79;34.48;94184.75;5086795;28;20430;-74
2022/05/30 10:17:32;;;;;;;8.60;6.80;;;;;;;31.46;33.38;94184.63;5103374;28;20466;-74
2022/05/30 10:20:01;;;;;;;9.43;8.07;;;;;;;31.14;34.46;94178.97;5082427;28;20181;-73
2022/05/30 10:28:50;;;;;;;7.87;7.17;;;;;;;31.47;34.05;94176.22;5084680;28;20483;-73
2022/05/30 10:31:57;;;;;;;8.00;7.23;;;;;;;31.83;33.01;94182.69;5083158;28;20465;-73
2022/05/30 10:35:08;;;;;;;9.43;7.17;;;;;;;31.90;32.98;94177.50;5086006;28;20461;-72
2022/05/30 10:38:07;;;;;;;6.73;6.10;;;;;;;30.38;33.22;94186.41;5099200;28;20454;-73
2022/05/30 10:40:48;;;;;;;9.70;7.30;;;;;;;31.30;33.03;94189.91;5085198;28;20436;-73
2022/05/30 10:43:21;;;;;;;10.87;7.30;;;;;;;31.56;33.30;94183.41;5086127;28;20433;-73
2022/05/30 10:46:18;;;;;;;8.73;8.00;;;;;;;31.17;34.90;94178.31;5081628;28;20425;-72
2022/05/30 10:49:08;;;;;;;7.63;6.80;;;;;;;32.08;32.43;94182.69;5077797;28;20443;-73
2022/05/30 10:51:48;;;;;;;12.87;7.20;;;;;;;31.97;33.04;94174.22;5087485;28;20420;-73
2022/05/30 10:54:24;;;;;;;7.77;7.20;;;;;;;32.71;31.95;94182.16;5085486;28;20471;-72
2022/05/30 10:56:53;;;;;;;7.33;6.63;;;;;;;33.33;30.60;94174.41;5085335;28;20420;-73
2022/05/30 10:59:39;;;;;;;7.10;6.50;;;;;;;33.03;30.99;94182.97;5084722;28;20449;-73
2022/05/30 11:02:05;;;;;;;7.57;6.87;;;;;;;31.85;32.10;94179.66;5083998;28;20430;-72
2022/05/30 11:04:52;;;;;;;7.53;6.70;;;;;;;31.03;33.75;94177.84;5082823;28;20466;-72
2022/05/30 11:07:18;;;;;;;8.27;7.63;;;;;;;32.34;31.92;94178.78;5085021;28;20179;-73
2022/05/30 11:09:54;;;;;;;7.77;7.07;;;;;;;33.28;30.74;94177.41;5086612;28;20578;-73
2022/05/30 11:12:25;;;;;;;9.53;6.63;;;;;;;31.95;32.11;94168.38;5084230;28;20199;-73
2022/05/30 11:15:14;;;;;;;7.90;6.37;;;;;;;33.63;29.55;94180.19;5084940;28;20898;-73
2022/05/30 11:17:54;;;;;;;7.07;6.40;;;;;;;33.33;29.61;94173.63;5081153;28;20428;-73
2022/05/30 11:20:40;;;;;;;7.93;6.87;;;;;;;34.12;28.63;94170.00;5078982;28;20440;-73
2022/05/30 11:23:07;;;;;;;8.13;7.33;;;;;;;35.47;27.54;94181.84;5077884;28;20425;-73
2022/05/30 11:26:04;;;;;;;8.33;7.53;;;;;;;33.09;30.15;94180.78;5085493;28;20433;-73
2022/05/30 11:29:02;;;;;;;6.90;6.30;;;;;;;32.63;30.97;94174.94;5078432;28;20445;-71
2022/05/30 11:31:56;;;;;;;7.80;7.00;;;;;;;33.11;30.08;94178.53;5083396;28;20489;-72
2022/05/30 11:34:36;;;;;;;7.37;6.57;;;;;;;32.51;31.22;94174.97;5087706;28;20950;-73
2022/05/30 11:37:11;;;;;;;5.83;5.33;;;;;;;33.77;29.31;94177.03;5084485;28;20419;-73
2022/05/30 11:39:58;;;;;;;7.50;6.90;;;;;;;33.81;29.17;94167.03;5086537;28;20434;-74
2022/05/30 11:42:26;;;;;;;10.10;6.23;;;;;;;33.42;29.43;94166.09;5083791;28;20416;-74
2022/05/30 11:44:56;;;;;;;7.20;5.90;;;;;;;33.71;28.96;94166.78;5094277;28;20535;-73
2022/05/30 11:47:40;;;;;;;7.53;6.73;;;;;;;34.40;28.23;94175.25;5083772;28;20416;-73
2022/05/30 11:50:08;;;;;;;10.20;6.70;;;;;;;34.03;28.29;94176.44;5082570;28;20435;-73
2022/05/30 11:52:58;;;;;;;6.87;5.57;;;;;;;34.56;26.84;94167.00;5082833;28;20456;-73
2022/05/30 11:55:28;;;;;;;12.10;5.90;;;;;;;34.54;26.92;94169.31;5081050;28;20444;-73